createdAt,value
2019-03-10T00:01:36.492Z,39.40
2019-03-10T00:04:05.414Z,38.90
2019-03-10T00:06:34.116Z,39.10
2019-03-10T00:09:04.217Z,39.20
2019-03-10T00:11:32.969Z,38.40
2019-03-10T00:14:01.722Z,38.90
2019-03-10T00:16:30.500Z,39.00
2019-03-10T00:18:59.319Z,38.30
2019-03-10T00:21:28.106Z,38.20
2019-03-10T00:23:56.839Z,38.30
2019-03-10T00:26:25.562Z,38.10
2019-03-10T00:28:54.217Z,37.80
2019-03-10T00:31:23.138Z,37.30
2019-03-10T00:33:52.007Z,37.30
2019-03-10T00:36:20.861Z,37.10
2019-03-10T00:38:52.419Z,37.20
2019-03-10T00:41:23.947Z,36.80
2019-03-10T00:43:55.535Z,36.50
2019-03-10T00:46:27.096Z,36.60
2019-03-10T00:48:58.661Z,36.80
2019-03-10T00:51:30.158Z,36.70
2019-03-10T00:53:58.940Z,36.40
2019-03-10T00:56:27.689Z,36.40
2019-03-10T00:58:56.464Z,36.10
2019-03-10T01:01:25.155Z,36.30
2019-03-10T01:03:53.920Z,36.00
2019-03-10T01:06:23.831Z,36.10
2019-03-10T01:08:52.595Z,36.10
2019-03-10T01:11:21.538Z,36.30
2019-03-10T01:13:50.306Z,36.50
2019-03-10T01:16:21.939Z,36.80
2019-03-10T01:18:52.572Z,36.40
2019-03-10T01:21:21.924Z,36.70
2019-03-10T01:23:50.670Z,37.50
2019-03-10T01:26:19.455Z,37.10
2019-03-10T01:28:48.156Z,36.70
2019-03-10T01:31:19.898Z,37.00
2019-03-10T01:33:49.905Z,37.10
2019-03-10T01:39:02.438Z,37.80
2019-03-10T01:41:31.086Z,38.40
2019-03-10T01:43:59.800Z,38.40
2019-03-10T01:46:28.568Z,38.40
2019-03-10T01:48:57.425Z,38.20
2019-03-10T01:51:27.551Z,38.50
2019-03-10T01:53:56.270Z,39.10
2019-03-10T01:56:25.091Z,39.50
2019-03-10T01:58:53.711Z,39.60
2019-03-10T02:01:22.432Z,40.00
2019-03-10T02:03:51.153Z,40.50
2019-03-10T02:06:19.837Z,41.20
2019-03-10T02:08:48.516Z,41.60
2019-03-10T02:11:17.249Z,42.30
2019-03-10T02:13:45.942Z,43.10
2019-03-10T02:16:14.716Z,44.50
2019-03-10T02:18:43.465Z,44.70
2019-03-10T02:21:12.263Z,45.10
2019-03-10T02:23:41.050Z,45.90
2019-03-10T02:26:09.792Z,46.50
2019-03-10T02:28:38.524Z,47.40
2019-03-10T02:31:07.418Z,48.40
2019-03-10T02:33:36.148Z,49.20
2019-03-10T02:36:04.887Z,49.40
2019-03-10T02:38:33.524Z,50.20
2019-03-10T02:41:02.207Z,51.20
2019-03-10T02:43:30.869Z,52.20
2019-03-10T02:45:59.545Z,53.00
2019-03-10T02:48:28.396Z,53.90
2019-03-10T02:50:57.115Z,54.60
2019-03-10T02:53:25.931Z,55.30
2019-03-10T02:55:54.621Z,57.20
2019-03-10T02:58:23.757Z,56.70
2019-03-10T03:00:52.584Z,57.40
2019-03-10T03:03:21.364Z,57.90
2019-03-10T03:05:50.086Z,58.80
2019-03-10T03:08:18.871Z,58.90
2019-03-10T03:10:47.631Z,59.40
2019-03-10T03:13:16.448Z,60.20
2019-03-10T03:15:45.194Z,60.80
2019-03-10T03:18:13.941Z,61.60
2019-03-10T03:20:42.702Z,62.70
2019-03-10T03:23:11.338Z,63.50
2019-03-10T03:25:40.083Z,63.80
2019-03-10T03:28:08.808Z,64.40
2019-03-10T03:30:37.556Z,62.00
2019-03-10T03:33:07.308Z,62.30
2019-03-10T03:35:40.281Z,62.90
2019-03-10T03:38:08.946Z,64.40
2019-03-10T03:40:40.401Z,64.30
2019-03-10T03:43:09.227Z,64.30
2019-03-10T03:45:37.882Z,64.30
2019-03-10T03:48:06.717Z,62.60
2019-03-10T03:50:35.456Z,64.30
2019-03-10T03:53:04.366Z,64.20
2019-03-10T03:55:33.068Z,65.60
2019-03-10T03:58:01.852Z,65.10
2019-03-10T04:00:30.693Z,65.70
2019-03-10T04:02:59.408Z,66.90
2019-03-10T04:05:28.117Z,69.90
2019-03-10T04:07:56.907Z,73.40
2019-03-10T04:10:25.680Z,77.10
2019-03-10T04:12:54.440Z,80.30
2019-03-10T04:15:23.148Z,82.90
2019-03-10T04:17:51.993Z,84.90
2019-03-10T04:20:20.662Z,86.50
2019-03-10T04:22:49.452Z,87.70
2019-03-10T04:25:18.567Z,87.10
2019-03-10T04:27:47.865Z,85.90
2019-03-10T04:30:16.600Z,85.60
2019-03-10T04:32:45.261Z,85.70
2019-03-10T04:35:14.023Z,85.90
2019-03-10T04:37:42.752Z,86.20
2019-03-10T04:40:12.582Z,86.70
2019-03-10T04:42:41.353Z,87.60
2019-03-10T04:45:10.250Z,87.70
2019-03-10T04:47:38.925Z,88.30
2019-03-10T04:50:08.913Z,88.80
2019-03-10T04:52:37.630Z,87.30
2019-03-10T04:55:10.053Z,86.50
2019-03-10T04:57:40.430Z,85.70
2019-03-10T05:00:09.983Z,85.50
2019-03-10T05:02:38.692Z,85.70
2019-03-10T05:05:08.256Z,86.30
2019-03-10T05:07:36.909Z,87.40
2019-03-10T05:10:06.262Z,88.70
2019-03-10T05:12:35.056Z,89.70
2019-03-10T05:15:05.968Z,90.20
2019-03-10T05:17:34.668Z,90.50
2019-03-10T05:20:04.245Z,90.80
2019-03-10T05:22:33.003Z,91.20
2019-03-10T05:25:01.748Z,91.60
2019-03-10T05:27:30.403Z,92.00
2019-03-10T05:29:59.050Z,92.40
2019-03-10T05:32:27.863Z,92.80
2019-03-10T05:34:56.607Z,93.10
2019-03-10T05:37:26.654Z,93.50
2019-03-10T05:39:55.310Z,93.70
2019-03-10T05:42:24.033Z,94.00
2019-03-10T05:44:52.687Z,94.30
2019-03-10T05:47:21.452Z,94.40
2019-03-10T05:49:50.056Z,94.40
2019-03-10T05:52:18.635Z,94.60
2019-03-10T05:54:47.387Z,94.80
2019-03-10T05:57:17.744Z,95.00
2019-03-10T05:59:46.376Z,95.20
2019-03-10T06:02:15.112Z,95.30
2019-03-10T06:04:43.791Z,95.40
2019-03-10T06:07:12.449Z,95.60
2019-03-10T06:09:41.158Z,95.80
2019-03-10T06:12:09.807Z,95.90
2019-03-10T06:14:38.488Z,96.10
2019-03-10T06:17:07.282Z,96.30
2019-03-10T06:19:36.056Z,96.30
2019-03-10T06:22:04.794Z,96.30
2019-03-10T06:24:33.368Z,96.50
2019-03-10T06:27:02.179Z,96.60
2019-03-10T06:29:30.925Z,96.70
2019-03-10T06:32:00.029Z,96.80
2019-03-10T06:34:28.767Z,96.90
2019-03-10T06:36:57.455Z,96.80
2019-03-10T06:39:26.201Z,96.80
2019-03-10T06:41:57.234Z,96.80
2019-03-10T06:44:26.122Z,96.90
2019-03-10T06:46:54.973Z,96.80
2019-03-10T06:49:23.942Z,96.80
2019-03-10T06:51:52.773Z,96.80
2019-03-10T06:54:21.725Z,96.90
2019-03-10T06:56:50.513Z,96.90
2019-03-10T06:59:19.305Z,97.00
2019-03-10T07:01:47.972Z,97.10
2019-03-10T07:04:16.812Z,97.10
2019-03-10T07:06:45.409Z,97.20
2019-03-10T07:09:14.130Z,96.80
2019-03-10T07:11:42.862Z,95.50
2019-03-10T07:14:11.606Z,94.90
2019-03-10T07:16:40.339Z,94.20
2019-03-10T07:19:09.028Z,93.70
2019-03-10T07:21:37.746Z,93.60
2019-03-10T07:24:10.879Z,93.90
2019-03-10T07:26:41.712Z,94.30
2019-03-10T07:29:12.141Z,94.30
2019-03-10T07:31:42.701Z,94.70
2019-03-10T07:34:16.016Z,95.00
2019-03-10T07:36:45.770Z,95.20
2019-03-10T07:39:16.171Z,94.60
2019-03-10T07:41:46.455Z,94.30
2019-03-10T07:44:16.827Z,94.30
2019-03-10T07:46:45.567Z,94.30
2019-03-10T07:49:18.056Z,94.30
2019-03-10T07:51:47.922Z,94.30
2019-03-10T07:54:18.279Z,94.40
2019-03-10T07:56:50.792Z,94.70
2019-03-10T07:59:20.641Z,95.10
2019-03-10T08:01:51.001Z,94.80
2019-03-10T08:04:21.413Z,95.00
2019-03-10T08:06:51.858Z,95.20
2019-03-10T08:09:22.225Z,95.40
2019-03-10T08:11:52.084Z,95.80
2019-03-10T08:14:22.467Z,96.10
2019-03-10T08:16:52.748Z,96.10
2019-03-10T08:19:23.133Z,96.50
2019-03-10T08:21:53.455Z,96.30
2019-03-10T08:24:23.814Z,96.40
2019-03-10T08:26:54.229Z,96.60
2019-03-10T08:29:24.531Z,96.60
2019-03-10T08:31:54.971Z,96.70
2019-03-10T08:34:25.370Z,96.70
2019-03-10T08:36:55.720Z,96.40
2019-03-10T08:39:25.396Z,96.50
2019-03-10T08:41:55.736Z,96.60
2019-03-10T08:44:26.205Z,96.60
2019-03-10T08:46:56.546Z,96.60
2019-03-10T08:49:26.928Z,96.70
2019-03-10T08:51:57.203Z,96.80
2019-03-10T08:54:27.556Z,97.00
2019-03-10T08:56:57.915Z,97.00
2019-03-10T08:59:28.297Z,96.90
2019-03-10T09:01:58.603Z,96.80
2019-03-10T09:04:28.958Z,96.60
2019-03-10T09:06:59.302Z,96.40
2019-03-10T09:09:29.666Z,96.50
2019-03-10T09:12:00.042Z,96.60
2019-03-10T09:14:30.388Z,96.80
2019-03-10T09:17:00.752Z,97.10
2019-03-10T09:19:31.081Z,97.00
2019-03-10T09:22:01.492Z,97.20
2019-03-10T09:24:31.918Z,97.20
2019-03-10T09:27:02.265Z,97.10
2019-03-10T09:29:32.615Z,97.20
2019-03-10T09:32:02.986Z,97.20
2019-03-10T09:34:33.397Z,97.30
2019-03-10T09:37:03.689Z,96.90
2019-03-10T09:39:34.179Z,97.10
2019-03-10T09:42:02.849Z,96.80
2019-03-10T09:44:33.195Z,96.50
2019-03-10T09:47:03.518Z,96.70
2019-03-10T09:49:33.922Z,97.00
2019-03-10T09:52:04.511Z,97.10
2019-03-10T09:54:34.874Z,97.10
2019-03-10T09:57:05.205Z,96.90
2019-03-10T09:59:35.535Z,96.90
2019-03-10T10:02:06.011Z,97.10
2019-03-10T10:04:37.810Z,96.60
2019-03-10T10:07:08.217Z,96.30
2019-03-10T10:09:38.531Z,95.90
2019-03-10T10:12:13.434Z,96.30
2019-03-10T10:14:40.954Z,96.30
2019-03-10T10:17:15.371Z,96.70
2019-03-10T10:19:46.807Z,97.10
2019-03-10T10:22:18.698Z,96.30
2019-03-10T10:24:49.772Z,95.50
2019-03-10T10:27:20.339Z,95.80
2019-03-10T10:29:50.847Z,96.00
2019-03-10T10:32:21.235Z,96.20
2019-03-10T10:34:50.928Z,96.40
2019-03-10T10:37:21.282Z,96.70
2019-03-10T10:39:51.640Z,96.80
2019-03-10T10:42:21.445Z,96.80
2019-03-10T10:44:50.227Z,97.00
2019-03-10T10:47:20.602Z,97.10
2019-03-10T10:49:49.418Z,97.20
2019-03-10T10:52:19.831Z,97.20
2019-03-10T10:54:50.349Z,97.40
2019-03-10T10:57:21.934Z,97.60
2019-03-10T10:59:52.317Z,97.10
2019-03-10T11:02:22.689Z,96.90
2019-03-10T11:04:53.063Z,96.50
2019-03-10T11:07:23.441Z,96.50
2019-03-10T11:09:53.130Z,96.60
2019-03-10T11:12:21.845Z,96.60
2019-03-10T11:14:52.129Z,96.70
2019-03-10T11:17:21.904Z,97.10
2019-03-10T11:19:52.271Z,97.30
2019-03-10T11:22:24.412Z,97.80
2019-03-10T11:24:56.079Z,97.70
2019-03-10T11:27:26.536Z,97.10
2019-03-10T11:29:56.881Z,97.20
2019-03-10T11:32:27.382Z,97.00
2019-03-10T11:34:56.193Z,96.60
2019-03-10T11:37:26.567Z,96.20
2019-03-10T11:39:56.924Z,96.10
2019-03-10T11:42:27.311Z,96.40
2019-03-10T11:44:57.625Z,95.10
2019-03-10T11:47:28.003Z,94.50
2019-03-10T11:49:58.427Z,94.60
2019-03-10T11:52:28.835Z,94.70
2019-03-10T11:54:59.183Z,93.30
2019-03-10T11:57:29.675Z,93.10
2019-03-10T12:00:00.023Z,92.10
2019-03-10T12:02:28.873Z,91.90
2019-03-10T12:04:59.219Z,90.20
2019-03-10T12:07:29.641Z,89.00
2019-03-10T12:09:58.425Z,88.90
2019-03-10T12:12:28.575Z,87.80
2019-03-10T12:14:57.439Z,85.20
2019-03-10T12:17:26.435Z,83.50
2019-03-10T12:19:55.266Z,82.90
2019-03-10T12:22:24.124Z,81.10
2019-03-10T12:24:52.911Z,81.10
2019-03-10T12:27:21.692Z,86.80
2019-03-10T12:29:50.620Z,93.00
2019-03-10T12:32:19.585Z,93.70
2019-03-10T12:34:48.399Z,92.60
2019-03-10T12:37:17.114Z,91.70
2019-03-10T12:39:45.929Z,90.40
2019-03-10T12:42:14.711Z,89.10
2019-03-10T12:44:43.546Z,85.30
2019-03-10T12:47:12.346Z,82.80
2019-03-10T12:49:41.167Z,80.10
2019-03-10T12:52:10.333Z,81.10
2019-03-10T12:54:39.073Z,78.90
2019-03-10T12:57:07.848Z,76.50
2019-03-10T12:59:36.793Z,74.50
2019-03-10T13:02:05.611Z,74.30
2019-03-10T13:04:34.546Z,71.10
2019-03-10T13:07:03.293Z,76.10
2019-03-10T13:09:32.110Z,80.10
2019-03-10T13:12:00.930Z,81.80
2019-03-10T13:14:30.929Z,80.20
2019-03-10T13:17:00.195Z,74.20
2019-03-10T13:19:28.908Z,73.90
2019-03-10T13:21:57.665Z,70.50
2019-03-10T13:24:26.447Z,70.00
2019-03-10T13:26:55.220Z,69.90
2019-03-10T13:29:24.117Z,69.10
2019-03-10T13:31:52.917Z,67.80
2019-03-10T13:34:21.766Z,67.10
2019-03-10T13:36:50.583Z,65.50
2019-03-10T13:39:19.467Z,65.80
2019-03-10T13:41:48.307Z,66.70
2019-03-10T13:44:17.125Z,72.80
2019-03-10T13:46:45.998Z,76.20
2019-03-10T13:49:14.843Z,85.60
2019-03-10T13:51:43.728Z,90.90
2019-03-10T13:54:12.579Z,92.00
2019-03-10T13:56:41.345Z,93.00
2019-03-10T13:59:10.312Z,91.60
2019-03-10T14:01:39.104Z,90.10
2019-03-10T14:04:08.289Z,85.00
2019-03-10T14:06:37.158Z,77.20
2019-03-10T14:09:08.272Z,65.20
2019-03-10T14:11:37.073Z,59.70
2019-03-10T14:14:05.887Z,54.70
2019-03-10T14:16:34.853Z,47.10
2019-03-10T14:19:03.627Z,42.70
2019-03-10T14:21:32.592Z,40.50
2019-03-10T14:24:01.439Z,38.70
2019-03-10T14:26:30.203Z,35.60
2019-03-10T14:28:58.961Z,37.20
2019-03-10T14:31:28.047Z,36.30
2019-03-10T14:33:57.238Z,36.00
2019-03-10T14:36:26.264Z,37.90
2019-03-10T14:38:55.109Z,38.00
2019-03-10T14:41:26.853Z,31.20
2019-03-10T14:43:55.673Z,31.10
2019-03-10T14:46:24.519Z,31.60
2019-03-10T14:48:53.660Z,31.20
2019-03-10T14:51:22.683Z,30.60
2019-03-10T14:53:51.468Z,31.90
2019-03-10T14:56:20.411Z,29.10
2019-03-10T14:58:49.295Z,30.90
2019-03-10T15:01:18.047Z,33.10
2019-03-10T15:03:46.909Z,36.00
2019-03-10T15:06:15.779Z,35.90
2019-03-10T15:08:46.427Z,34.10
2019-03-10T15:11:15.124Z,34.10
2019-03-10T15:13:44.839Z,35.60
2019-03-10T15:16:13.612Z,35.50
2019-03-10T15:18:42.402Z,35.10
2019-03-10T15:21:11.267Z,35.50
2019-03-10T15:23:40.549Z,35.00
2019-03-10T15:26:09.486Z,35.50
2019-03-10T15:28:38.322Z,36.30
2019-03-10T15:31:07.478Z,35.50
2019-03-10T15:33:36.273Z,35.60
2019-03-10T15:36:05.098Z,36.50
2019-03-10T15:38:36.224Z,35.40
2019-03-10T15:41:05.066Z,35.80
2019-03-10T15:43:33.780Z,36.20
2019-03-10T15:46:02.511Z,36.40
2019-03-10T15:48:31.388Z,36.50
2019-03-10T15:51:00.362Z,36.20
2019-03-10T15:53:29.213Z,37.10
2019-03-10T15:55:57.987Z,37.30
2019-03-10T15:58:26.910Z,36.90
2019-03-10T16:00:55.624Z,36.40
2019-03-10T16:03:24.582Z,37.20
2019-03-10T16:05:53.334Z,37.10
2019-03-10T16:08:22.174Z,37.70
2019-03-10T16:10:50.980Z,37.90
2019-03-10T16:13:19.815Z,38.20
2019-03-10T16:15:48.795Z,37.90
2019-03-10T16:18:18.020Z,38.80
2019-03-10T16:20:46.826Z,40.70
2019-03-10T16:23:15.704Z,40.60
2019-03-10T16:25:44.451Z,40.90
2019-03-10T16:28:13.262Z,41.60
2019-03-10T16:30:42.461Z,45.10
2019-03-10T16:33:11.500Z,46.90
2019-03-10T16:35:40.365Z,48.30
2019-03-10T16:38:09.236Z,52.10
2019-03-10T16:40:38.051Z,56.40
2019-03-10T16:43:06.871Z,56.60
2019-03-10T16:45:35.715Z,59.50
2019-03-10T16:48:04.796Z,61.00
2019-03-10T16:50:34.612Z,66.90
2019-03-10T16:53:03.482Z,67.20
2019-03-10T16:55:32.238Z,69.30
2019-03-10T16:58:01.003Z,68.80
2019-03-10T17:00:29.875Z,70.00
2019-03-10T17:02:58.750Z,69.60
2019-03-10T17:05:27.608Z,71.40
2019-03-10T17:07:56.323Z,74.80
2019-03-10T17:10:26.332Z,76.30
2019-03-10T17:12:55.419Z,78.30
2019-03-10T17:15:25.278Z,80.50
2019-03-10T17:17:54.702Z,82.90
2019-03-10T17:20:23.516Z,83.90
2019-03-10T17:22:52.306Z,84.10
2019-03-10T17:25:21.252Z,86.60
2019-03-10T17:27:50.017Z,86.40
2019-03-10T17:30:20.339Z,87.50
2019-03-10T17:32:49.444Z,85.80
2019-03-10T17:35:19.062Z,86.90
2019-03-10T17:37:48.698Z,86.80
2019-03-10T17:40:19.978Z,88.10
2019-03-10T17:42:48.819Z,89.30
2019-03-10T17:45:18.921Z,90.10
2019-03-10T17:47:48.015Z,90.10
2019-03-10T17:50:18.049Z,89.20
2019-03-10T17:52:47.370Z,89.50
2019-03-10T17:55:17.892Z,89.20
2019-03-10T17:57:46.779Z,89.20
2019-03-10T18:00:18.717Z,88.10
2019-03-10T18:02:47.814Z,89.10
2019-03-10T18:05:16.517Z,89.20
2019-03-10T18:07:45.383Z,89.20
2019-03-10T18:10:16.357Z,89.20
2019-03-10T18:12:45.232Z,89.10
2019-03-10T18:15:16.105Z,89.10
2019-03-10T18:17:45.169Z,89.10
2019-03-10T18:20:16.009Z,89.10
2019-03-10T18:22:44.968Z,90.20
2019-03-10T18:25:14.867Z,90.70
2019-03-10T18:27:43.629Z,90.70
2019-03-10T18:30:15.649Z,91.10
2019-03-10T18:32:44.631Z,91.20
2019-03-10T18:35:13.519Z,91.20
2019-03-10T18:37:42.261Z,91.30
2019-03-10T18:40:14.279Z,91.20
2019-03-10T18:42:43.149Z,91.30
2019-03-10T18:45:14.434Z,91.60
2019-03-10T18:47:43.546Z,91.80
2019-03-10T18:50:15.188Z,92.00
2019-03-10T18:52:44.358Z,92.10
2019-03-10T18:55:15.130Z,92.10
2019-03-10T18:57:44.222Z,92.10
2019-03-10T19:00:16.086Z,91.80
2019-03-10T19:02:46.265Z,91.80
2019-03-10T19:05:15.120Z,91.90
2019-03-10T19:07:44.077Z,91.90
2019-03-10T19:10:14.259Z,92.00
2019-03-10T19:12:43.137Z,91.40
2019-03-10T19:15:14.708Z,91.50
2019-03-10T19:17:43.430Z,91.10
2019-03-10T19:20:13.934Z,91.40
2019-03-10T19:22:43.112Z,91.20
2019-03-10T19:25:13.975Z,90.50
2019-03-10T19:27:42.697Z,91.20
2019-03-10T19:30:14.620Z,91.50
2019-03-10T19:32:43.731Z,91.60
2019-03-10T19:35:13.172Z,91.70
2019-03-10T19:37:42.253Z,91.70
2019-03-10T19:40:13.773Z,92.00
2019-03-10T19:42:42.673Z,92.20
2019-03-10T19:45:14.246Z,92.40
2019-03-10T19:47:43.065Z,92.80
2019-03-10T19:50:14.148Z,93.20
2019-03-10T19:52:43.039Z,93.50
2019-03-10T19:55:13.982Z,93.50
2019-03-10T19:57:42.725Z,93.20
2019-03-10T20:00:14.382Z,92.90
2019-03-10T20:02:43.212Z,92.50
2019-03-10T20:05:12.563Z,92.50
2019-03-10T20:07:41.430Z,91.90
2019-03-10T20:10:13.287Z,91.70
2019-03-10T20:12:42.312Z,91.60
2019-03-10T20:15:13.686Z,91.90
2019-03-10T20:17:42.655Z,91.40
2019-03-10T20:20:13.477Z,91.20
2019-03-10T20:22:42.283Z,91.20
2019-03-10T20:25:13.159Z,91.20
2019-03-10T20:27:41.982Z,91.40
2019-03-10T20:30:13.941Z,90.70
2019-03-10T20:32:42.732Z,90.40
2019-03-10T20:35:11.609Z,90.40
2019-03-10T20:37:40.498Z,90.20
2019-03-10T20:40:12.039Z,89.60
2019-03-10T20:42:40.805Z,88.50
2019-03-10T20:45:10.819Z,88.50
2019-03-10T20:47:39.702Z,87.10
2019-03-10T20:50:11.601Z,85.80
2019-03-10T20:52:40.422Z,84.80
2019-03-10T20:55:10.995Z,85.10
2019-03-10T20:57:39.883Z,86.00
2019-03-10T21:00:11.690Z,85.70
2019-03-10T21:02:40.474Z,88.60
2019-03-10T21:05:11.387Z,90.00
2019-03-10T21:07:40.190Z,90.30
2019-03-10T21:10:11.746Z,90.60
2019-03-10T21:12:42.697Z,91.10
2019-03-10T21:15:13.762Z,91.40
2019-03-10T21:17:42.620Z,91.90
2019-03-10T21:20:13.794Z,91.60
2019-03-10T21:22:42.639Z,91.50
2019-03-10T21:25:14.268Z,91.30
2019-03-10T21:27:43.107Z,91.20
2019-03-10T21:30:15.033Z,91.10
2019-03-10T21:32:43.925Z,91.10
2019-03-10T21:35:17.657Z,91.10
2019-03-10T21:37:43.237Z,91.10
2019-03-10T21:40:14.503Z,91.20
2019-03-10T21:42:43.251Z,91.10
2019-03-10T21:45:12.198Z,90.90
2019-03-10T21:47:40.935Z,90.50
2019-03-10T21:50:12.394Z,90.00
2019-03-10T21:52:41.127Z,89.40
2019-03-10T21:55:11.947Z,89.00
2019-03-10T21:57:40.863Z,88.30
2019-03-10T22:00:12.368Z,88.20
2019-03-10T22:02:41.066Z,88.20
2019-03-10T22:05:11.811Z,88.20
2019-03-10T22:07:40.604Z,88.10
2019-03-10T22:10:12.171Z,87.30
2019-03-10T22:12:40.889Z,87.60
2019-03-10T22:15:12.191Z,88.00
2019-03-10T22:17:40.983Z,88.10
2019-03-10T22:20:12.274Z,88.10
2019-03-10T22:22:48.259Z,88.20
2019-03-10T22:25:13.466Z,87.10
2019-03-10T22:27:45.291Z,85.70
2019-03-10T22:30:15.722Z,83.80
2019-03-10T22:32:44.654Z,82.70
2019-03-10T22:35:13.763Z,82.40
2019-03-10T22:37:42.521Z,82.30
2019-03-10T22:40:14.000Z,82.00
2019-03-10T22:42:42.812Z,81.90
2019-03-10T22:45:14.147Z,82.50
2019-03-10T22:47:43.172Z,82.70
2019-03-10T22:50:14.017Z,82.00
2019-03-10T22:52:43.458Z,81.50
2019-03-10T22:55:13.551Z,81.90
2019-03-10T22:57:43.437Z,81.50
2019-03-10T23:00:15.056Z,81.30
2019-03-10T23:02:43.861Z,80.00
2019-03-10T23:05:12.742Z,79.20
2019-03-10T23:07:41.398Z,79.20
2019-03-10T23:10:12.697Z,79.60
2019-03-10T23:12:41.462Z,80.10
2019-03-10T23:15:12.323Z,80.50
2019-03-10T23:17:41.082Z,80.60
2019-03-10T23:20:12.655Z,81.40
2019-03-10T23:22:41.478Z,81.90
2019-03-10T23:25:10.604Z,82.50
2019-03-10T23:27:39.403Z,81.60
2019-03-10T23:30:11.302Z,81.80
2019-03-10T23:32:40.734Z,81.70
2019-03-10T23:35:10.972Z,81.70
2019-03-10T23:37:39.702Z,82.10
2019-03-10T23:40:12.022Z,82.50
2019-03-10T23:42:41.000Z,82.70
2019-03-10T23:45:12.672Z,82.20
2019-03-10T23:47:41.393Z,81.90
2019-03-10T23:50:12.620Z,82.40
2019-03-10T23:52:41.451Z,82.30
2019-03-10T23:55:11.781Z,82.20
2019-03-10T23:57:40.600Z,82.10
